createdAt,value
2022-10-04T00:01:53.400Z,100406.64
2022-10-04T00:04:42.645Z,100413.14
2022-10-04T00:07:20.026Z,100407.88
2022-10-04T00:09:52.435Z,100411.04
2022-10-04T00:12:26.698Z,100408.05
2022-10-04T00:15:00.146Z,100405.61
2022-10-04T00:17:37.657Z,100405.07
2022-10-04T00:20:44.498Z,100401.21
2022-10-04T00:23:24.947Z,100407.19
2022-10-04T00:26:01.825Z,100410.36
2022-10-04T00:28:37.365Z,100407.38
2022-10-04T00:31:26.666Z,100409.13
2022-10-04T00:34:18.018Z,100412.45
2022-10-04T00:36:55.746Z,100412.11
2022-10-04T00:39:34.979Z,100412.99
2022-10-04T00:42:07.013Z,100410.70
2022-10-04T00:44:51.444Z,100417.34
2022-10-04T00:47:31.705Z,100414.89
2022-10-04T00:50:11.504Z,100414.38
2022-10-04T00:52:44.326Z,100414.19
2022-10-04T00:55:41.928Z,100414.54
2022-10-04T00:58:21.815Z,100416.29
2022-10-04T01:00:49.928Z,100416.29
2022-10-04T01:03:45.394Z,100417.34
2022-10-04T01:06:15.372Z,100418.04
2022-10-04T01:08:56.609Z,100415.08
2022-10-04T01:11:29.247Z,100412.79
2022-10-04T01:14:02.102Z,100414.36
2022-10-04T01:16:34.817Z,100415.41
2022-10-04T01:19:24.768Z,100414.89
2022-10-04T01:22:07.694Z,100411.20
2022-10-04T01:24:38.002Z,100413.83
2022-10-04T01:27:31.693Z,100413.66
2022-10-04T01:30:00.766Z,100416.27
2022-10-04T01:32:31.295Z,100416.98
2022-10-04T01:34:59.628Z,100412.61
2022-10-04T01:37:28.180Z,100410.85
2022-10-04T01:39:56.403Z,100418.21
2022-10-04T01:42:36.424Z,100418.04
2022-10-04T01:45:09.746Z,100418.02
2022-10-04T01:47:43.873Z,100421.52
2022-10-04T01:50:20.472Z,100425.56
2022-10-04T01:52:58.619Z,100423.81
2022-10-04T01:55:30.966Z,100422.06
2022-10-04T01:58:10.882Z,100423.64
2022-10-04T02:00:41.759Z,100425.38
2022-10-04T02:03:41.243Z,100421.34
2022-10-04T02:06:11.669Z,100417.85
2022-10-04T02:08:47.198Z,100421.69
2022-10-04T02:11:23.003Z,100421.52
2022-10-04T02:13:55.068Z,100417.67
2022-10-04T02:16:24.962Z,100420.13
2022-10-04T02:18:54.142Z,100416.27
2022-10-04T02:21:23.452Z,100415.39
2022-10-04T02:23:52.880Z,100411.37
2022-10-04T02:26:21.494Z,100410.48
2022-10-04T02:28:50.056Z,100410.67
2022-10-04T02:31:40.660Z,100413.29
2022-10-04T02:34:09.294Z,100411.72
2022-10-04T02:36:39.601Z,100412.41
2022-10-04T02:39:15.856Z,100411.19
2022-10-04T02:41:46.467Z,100420.65
2022-10-04T02:44:17.955Z,100417.15
2022-10-04T02:46:58.058Z,100422.40
2022-10-04T02:49:41.219Z,100424.69
2022-10-04T02:52:21.120Z,100423.11
2022-10-04T02:54:58.037Z,100422.59
2022-10-04T02:57:26.464Z,100421.88
2022-10-04T03:00:23.471Z,100423.44
2022-10-04T03:03:16.727Z,100425.73
2022-10-04T03:06:06.494Z,100429.58
2022-10-04T03:08:45.897Z,100429.58
2022-10-04T03:11:16.141Z,100432.39
2022-10-04T03:13:47.714Z,100431.67
2022-10-04T03:16:17.062Z,100429.92
2022-10-04T03:18:47.110Z,100429.75
2022-10-04T03:21:17.938Z,100429.05
2022-10-04T03:23:48.266Z,100429.91
2022-10-04T03:26:19.397Z,100432.19
2022-10-04T03:28:48.263Z,100433.41
2022-10-04T03:31:16.953Z,100435.16
2022-10-04T03:33:45.408Z,100435.34
2022-10-04T03:36:17.108Z,100435.52
2022-10-04T03:38:48.772Z,100435.85
2022-10-04T03:41:17.069Z,100440.93
2022-10-04T03:43:49.603Z,100441.98
2022-10-04T03:46:20.036Z,100442.50
2022-10-04T03:48:51.319Z,100443.02
2022-10-04T03:51:23.156Z,100445.29
2022-10-04T03:53:57.981Z,100440.21
2022-10-04T03:56:29.839Z,100440.40
2022-10-04T03:58:59.032Z,100445.64
2022-10-04T04:01:38.835Z,100444.76
2022-10-04T04:04:25.625Z,100442.48
2022-10-04T04:07:06.158Z,100443.00
2022-10-04T04:09:34.210Z,100443.19
2022-10-04T04:12:07.063Z,100448.63
2022-10-04T04:14:35.498Z,100447.04
2022-10-04T04:17:42.883Z,100445.46
2022-10-04T04:20:28.633Z,100448.61
2022-10-04T04:23:14.686Z,100444.75
2022-10-04T04:25:47.274Z,100448.42
2022-10-04T04:28:27.525Z,100453.34
2022-10-04T04:31:10.164Z,100449.48
2022-10-04T04:33:45.226Z,100456.13
2022-10-04T04:36:16.022Z,100456.11
2022-10-04T04:39:37.579Z,100452.42
2022-10-04T04:42:23.731Z,100456.27
2022-10-04T04:44:56.436Z,100457.48
2022-10-04T04:47:42.557Z,100460.46
2022-10-04T04:50:16.577Z,100463.61
2022-10-04T04:52:58.633Z,100465.52
2022-10-04T04:55:39.908Z,100471.11
2022-10-04T04:58:21.618Z,100471.29
2022-10-04T05:01:18.499Z,100468.13
2022-10-04T05:04:04.389Z,100472.84
2022-10-04T05:06:34.609Z,100477.05
2022-10-04T05:09:04.322Z,100478.45
2022-10-04T05:11:39.054Z,100479.84
2022-10-04T05:14:11.111Z,100483.88
2022-10-04T05:16:55.947Z,100483.02
2022-10-04T05:19:34.398Z,100485.64
2022-10-04T05:22:15.206Z,100485.98
2022-10-04T05:24:51.706Z,100481.60
2022-10-04T05:27:37.213Z,100487.20
2022-10-04T05:30:36.661Z,100487.91
2022-10-04T05:33:09.268Z,100486.52
2022-10-04T05:35:58.505Z,100490.89
2022-10-04T05:38:38.020Z,100494.56
2022-10-04T05:41:28.150Z,100494.39
2022-10-04T05:44:00.251Z,100499.65
2022-10-04T05:46:35.594Z,100498.60
2022-10-04T05:49:16.726Z,100500.17
2022-10-04T05:51:54.789Z,100498.95
2022-10-04T05:54:26.601Z,100502.61
2022-10-04T05:57:15.921Z,100504.90
2022-10-04T06:00:14.057Z,100508.77
2022-10-04T06:03:03.912Z,100509.83
2022-10-04T06:05:40.875Z,100520.34
2022-10-04T06:08:34.729Z,100519.48
2022-10-04T06:11:29.596Z,100520.88
2022-10-04T06:14:00.746Z,100520.89
2022-10-04T06:16:44.290Z,100523.01
2022-10-04T06:19:46.338Z,100522.50
2022-10-04T06:22:17.238Z,100526.71
2022-10-04T06:25:09.637Z,100527.09
2022-10-04T06:28:19.174Z,100533.21
2022-10-04T06:30:47.359Z,100534.45
2022-10-04T06:33:29.013Z,100534.30
2022-10-04T06:36:14.019Z,100540.27
2022-10-04T06:38:46.295Z,100542.39
2022-10-04T06:41:23.730Z,100542.92
2022-10-04T06:44:16.058Z,100545.36
2022-10-04T06:47:16.289Z,100554.31
2022-10-04T06:50:23.133Z,100553.44
2022-10-04T06:52:54.924Z,100555.20
2022-10-04T06:55:38.942Z,100556.98
2022-10-04T06:58:40.391Z,100559.08
2022-10-04T07:01:28.257Z,100565.06
2022-10-04T07:04:11.274Z,100564.20
2022-10-04T07:07:20.619Z,100566.48
2022-10-04T07:09:54.441Z,100565.63
2022-10-04T07:12:23.890Z,100566.52
2022-10-04T07:15:01.273Z,100570.56
2022-10-04T07:17:43.423Z,100568.13
2022-10-04T07:20:22.496Z,100567.79
2022-10-04T07:22:55.889Z,100573.76
2022-10-04T07:25:44.490Z,100572.73
2022-10-04T07:28:36.742Z,100572.06
2022-10-04T07:31:31.194Z,100575.05
2022-10-04T07:34:12.054Z,100579.45
2022-10-04T07:36:54.411Z,100580.49
2022-10-04T07:39:34.493Z,100581.04
2022-10-04T07:42:24.793Z,100577.16
2022-10-04T07:45:12.584Z,100583.48
2022-10-04T07:47:41.608Z,100589.45
2022-10-04T07:50:36.603Z,100587.73
2022-10-04T07:53:13.204Z,100590.35
2022-10-04T07:55:50.593Z,100597.04
2022-10-04T07:58:18.839Z,100599.66
2022-10-04T08:00:55.389Z,100599.31
2022-10-04T08:03:35.125Z,100599.66
2022-10-04T08:06:12.183Z,100606.15
2022-10-04T08:08:49.228Z,100606.33
2022-10-04T08:11:43.507Z,100608.62
2022-10-04T08:14:24.178Z,100613.01
2022-10-04T08:17:15.383Z,100615.81
2022-10-04T08:20:08.540Z,100621.79
2022-10-04T08:23:11.135Z,100622.67
2022-10-04T08:25:52.221Z,100623.89
2022-10-04T08:29:17.897Z,100631.95
2022-10-04T08:32:07.868Z,100634.94
2022-10-04T08:35:07.976Z,100636.35
2022-10-04T08:38:09.631Z,100634.75
2022-10-04T08:40:59.168Z,100637.39
2022-10-04T08:43:34.250Z,100636.32
2022-10-04T08:46:27.772Z,100637.54
2022-10-04T08:49:46.774Z,100634.71
2022-10-04T08:52:39.570Z,100635.43
2022-10-04T08:55:35.274Z,100639.45
2022-10-04T08:58:41.310Z,100644.02
2022-10-04T09:01:28.000Z,100643.15
2022-10-04T09:04:04.957Z,100643.14
2022-10-04T09:07:00.498Z,100646.81
2022-10-04T09:09:52.932Z,100643.44
2022-10-04T09:13:05.310Z,100651.85
2022-10-04T09:15:54.100Z,100654.82
2022-10-04T09:18:29.512Z,100652.17
2022-10-04T09:21:01.317Z,100654.29
2022-10-04T09:23:32.248Z,100666.95
2022-10-04T09:26:15.545Z,100661.65
2022-10-04T09:29:05.345Z,100657.93
2022-10-04T09:31:51.465Z,100661.58
2022-10-04T09:34:37.404Z,100663.86
2022-10-04T09:37:15.114Z,100670.36
2022-10-04T09:40:15.258Z,100675.32
2022-10-04T09:43:21.679Z,100673.23
2022-10-04T09:46:12.171Z,100671.11
2022-10-04T09:48:56.804Z,100673.54
2022-10-04T09:51:25.553Z,100681.60
2022-10-04T09:53:59.698Z,100681.77
2022-10-04T09:57:01.363Z,100679.33
2022-10-04T09:59:52.079Z,100679.00
2022-10-04T10:02:29.382Z,100678.15
2022-10-04T10:05:35.355Z,100673.05
2022-10-04T10:08:37.053Z,100668.27
2022-10-04T10:11:49.841Z,100670.69
2022-10-04T10:14:48.950Z,100681.52
2022-10-04T10:17:23.610Z,100685.02
2022-10-04T10:20:00.647Z,100683.80
2022-10-04T10:23:16.919Z,100687.13
2022-10-04T10:26:15.523Z,100679.90
2022-10-04T10:28:46.407Z,100683.36
2022-10-04T10:31:48.238Z,100684.38
2022-10-04T10:34:46.820Z,100684.84
2022-10-04T10:37:24.982Z,100693.09
2022-10-04T10:39:58.775Z,100694.34
2022-10-04T10:42:47.766Z,100696.14
2022-10-04T10:45:52.749Z,100699.17
2022-10-04T10:48:26.622Z,100699.89
2022-10-04T10:51:18.675Z,100699.52
2022-10-04T10:54:20.848Z,100693.63
2022-10-04T10:57:26.500Z,100693.58
2022-10-04T11:00:18.960Z,100691.38
2022-10-04T11:02:50.785Z,100694.33
2022-10-04T11:05:53.583Z,100693.08
2022-10-04T11:08:36.889Z,100692.73
2022-10-04T11:11:23.882Z,100695.04
2022-10-04T11:14:19.787Z,100698.19
2022-10-04T11:17:14.368Z,100694.63
2022-10-04T11:20:28.293Z,100701.48
2022-10-04T11:23:09.011Z,100701.53
2022-10-04T11:25:46.604Z,100702.30
2022-10-04T11:28:46.874Z,100706.73
2022-10-04T11:31:18.128Z,100710.42
2022-10-04T11:34:17.764Z,100712.20
2022-10-04T11:37:07.700Z,100708.28
2022-10-04T11:39:53.850Z,100707.73
2022-10-04T11:42:40.136Z,100706.32
2022-10-04T11:45:38.410Z,100707.20
2022-10-04T11:48:36.196Z,100704.21
2022-10-04T11:51:35.297Z,100705.60
2022-10-04T11:54:48.024Z,100705.59
2022-10-04T11:57:57.275Z,100711.02
2022-10-04T12:00:46.989Z,100709.25
2022-10-04T12:03:31.210Z,100709.40
2022-10-04T12:06:14.163Z,100708.14
2022-10-04T12:09:06.183Z,100710.91
2022-10-04T12:12:08.066Z,100709.26
2022-10-04T12:14:53.892Z,100704.46
2022-10-04T12:17:53.072Z,100709.30
2022-10-04T12:20:28.927Z,100707.64
2022-10-04T12:22:56.978Z,100705.27
2022-10-04T12:26:02.243Z,100703.23
2022-10-04T12:28:52.108Z,100711.76
2022-10-04T12:31:26.540Z,100713.83
2022-10-04T12:34:16.056Z,100709.00
2022-10-04T12:37:16.647Z,100706.45
2022-10-04T12:40:20.003Z,100705.30
2022-10-04T12:42:55.473Z,100702.42
2022-10-04T12:45:52.950Z,100707.14
2022-10-04T12:48:56.572Z,100707.27
2022-10-04T12:51:50.017Z,100698.77
2022-10-04T12:54:42.747Z,100709.20
2022-10-04T12:57:28.852Z,100706.06
2022-10-04T13:30:58.501Z,100700.89
2022-10-04T13:33:42.600Z,100701.39
2022-10-04T13:36:22.167Z,100703.16
2022-10-04T13:39:20.964Z,100700.15
2022-10-04T13:42:30.203Z,100702.95
2022-10-04T13:45:32.284Z,100700.66
2022-10-04T13:48:09.264Z,100701.52
2022-10-04T13:50:46.497Z,100699.38
2022-10-04T13:53:54.350Z,100702.36
2022-10-04T14:01:12.986Z,100703.21
2022-10-04T14:03:41.306Z,100701.39
2022-10-04T14:06:38.605Z,100706.48
2022-10-04T14:09:27.033Z,100704.15
2022-10-04T14:12:56.866Z,100702.22
2022-10-04T14:15:53.541Z,100709.50
2022-10-04T14:18:40.434Z,100710.06
2022-10-04T14:21:19.839Z,100712.92
2022-10-04T14:24:07.998Z,100711.02
2022-10-04T14:27:03.014Z,100711.10
2022-10-04T14:29:52.807Z,100708.12
2022-10-04T14:32:54.865Z,100699.85
2022-10-04T14:36:02.685Z,100705.70
2022-10-04T14:50:23.197Z,100698.44
2022-10-04T14:52:52.126Z,100695.64
2022-10-04T14:55:44.856Z,100694.82
2022-10-04T14:58:25.734Z,100686.45
2022-10-04T15:01:21.858Z,100686.68
2022-10-04T15:04:41.739Z,100686.39
2022-10-04T15:07:36.902Z,100686.98
2022-10-04T15:10:27.949Z,100688.27
2022-10-04T15:13:26.899Z,100681.60
2022-10-04T15:16:23.257Z,100683.91
2022-10-04T15:18:56.383Z,100684.29
2022-10-04T15:21:45.836Z,100685.52
2022-10-04T15:24:16.893Z,100690.99
2022-10-04T15:26:50.544Z,100691.34
2022-10-04T15:29:24.438Z,100688.17
2022-10-04T15:31:52.544Z,100683.61
2022-10-04T15:34:58.285Z,100675.88
2022-10-04T15:37:44.146Z,100680.27
2022-10-04T15:40:51.284Z,100675.69
2022-10-04T15:43:31.450Z,100680.27
2022-10-04T15:46:32.029Z,100684.00
2022-10-04T15:49:17.163Z,100695.64
2022-10-04T15:52:06.494Z,100700.61
2022-10-04T15:55:10.366Z,100704.69
2022-10-04T15:58:16.943Z,100704.90
2022-10-04T16:01:13.343Z,100706.14
2022-10-04T16:04:15.682Z,100700.00
2022-10-04T16:06:58.656Z,100704.39
2022-10-04T16:09:49.519Z,100705.46
2022-10-04T16:12:33.439Z,100707.25
2022-10-04T16:15:19.544Z,100705.52
2022-10-04T16:18:25.320Z,100702.55
2022-10-04T16:21:12.940Z,100701.33
2022-10-04T16:23:43.269Z,100706.97
2022-10-04T16:26:16.126Z,100703.80
2022-10-04T16:28:59.415Z,100703.45
2022-10-04T16:31:39.737Z,100707.52
2022-10-04T16:34:08.187Z,100696.27
2022-10-04T16:36:59.729Z,100693.98
2022-10-04T16:39:57.966Z,100691.15
2022-10-04T16:42:54.738Z,100694.85
2022-10-04T16:45:42.470Z,100689.21
2022-10-04T16:48:22.800Z,100689.23
2022-10-04T16:51:00.302Z,100698.75
2022-10-04T16:53:45.001Z,100698.77
2022-10-04T16:56:33.480Z,100693.34
2022-10-04T16:59:03.042Z,100686.52
2022-10-04T17:01:55.740Z,100689.52
2022-10-04T17:04:39.678Z,100689.19
2022-10-04T17:07:07.731Z,100691.32
2022-10-04T17:09:40.444Z,100695.39
2022-10-04T17:12:37.050Z,100694.33
2022-10-04T17:15:14.448Z,100691.54
2022-10-04T17:18:06.385Z,100688.76
2022-10-04T17:20:40.859Z,100684.04
2022-10-04T17:23:42.675Z,100678.59
2022-10-04T17:26:32.632Z,100682.14
2022-10-04T17:29:15.874Z,100679.50
2022-10-04T17:32:10.687Z,100682.85
2022-10-04T17:35:06.867Z,100690.63
2022-10-04T17:37:50.094Z,100692.59
2022-10-04T17:40:28.854Z,100692.95
2022-10-04T17:43:33.005Z,100696.83
2022-10-04T17:46:19.718Z,100703.16
2022-10-04T17:49:53.012Z,100706.35
2022-10-04T17:52:50.535Z,100704.79
2022-10-04T17:55:42.133Z,100707.44
2022-10-04T17:58:20.751Z,100700.25
2022-10-04T18:01:01.376Z,100698.48
2022-10-04T18:03:52.607Z,100700.25
2022-10-04T18:06:34.943Z,100707.83
2022-10-04T18:09:27.410Z,100710.11
2022-10-04T18:12:11.655Z,100712.92
2022-10-04T18:15:06.224Z,100699.58
2022-10-04T18:17:42.406Z,100702.38
2022-10-04T18:20:31.549Z,100706.42
2022-10-04T18:23:01.111Z,100712.58
2022-10-04T18:25:35.513Z,100708.52
2022-10-04T18:28:10.561Z,100706.07
2022-10-04T18:30:45.990Z,100703.96
2022-10-04T18:33:25.847Z,100708.70
2022-10-04T18:36:14.189Z,100712.41
2022-10-04T18:38:58.180Z,100717.50
2022-10-04T18:41:46.656Z,100723.66
2022-10-04T18:44:16.881Z,100719.44
2022-10-04T18:46:51.288Z,100721.02
2022-10-04T18:49:30.416Z,100726.99
2022-10-04T18:52:10.941Z,100724.18
2022-10-04T18:55:03.596Z,100730.67
2022-10-04T18:58:00.924Z,100725.95
2022-10-04T19:01:06.315Z,100731.20
2022-10-04T19:03:53.284Z,100729.63
2022-10-04T19:06:34.221Z,100724.52
2022-10-04T19:09:21.050Z,100721.35
2022-10-04T19:12:02.571Z,100719.06
2022-10-04T19:14:43.971Z,100715.20
2022-10-04T19:17:23.489Z,100716.26
2022-10-04T19:19:57.639Z,100722.59
2022-10-04T19:22:40.954Z,100719.77
2022-10-04T19:25:15.977Z,100719.77
2022-10-04T19:28:04.554Z,100718.70
2022-10-04T19:31:00.818Z,100718.73
2022-10-04T19:33:42.636Z,100715.91
2022-10-04T19:36:39.418Z,100713.09
2022-10-04T19:39:15.862Z,100716.42
2022-10-04T19:41:49.644Z,100716.60
2022-10-04T19:44:48.419Z,100716.77
2022-10-04T19:47:33.871Z,100717.31
2022-10-04T19:50:16.304Z,100710.98
2022-10-04T19:52:53.565Z,100714.50
2022-10-04T19:55:22.342Z,100719.59
2022-10-04T19:57:54.689Z,100722.03
2022-10-04T20:00:28.913Z,100718.72
2022-10-04T20:02:57.458Z,100720.12
2022-10-04T20:05:27.556Z,100721.19
2022-10-04T20:08:11.664Z,100723.98
2022-10-04T20:10:51.577Z,100727.48
2022-10-04T20:13:25.549Z,100731.00
2022-10-04T20:16:20.439Z,100733.63
2022-10-04T20:19:00.878Z,100730.13
2022-10-04T20:21:34.576Z,100726.80
2022-10-04T20:36:09.686Z,100706.42
2022-10-04T20:39:12.556Z,100706.41
2022-10-04T20:42:03.350Z,100714.50
2022-10-04T20:44:54.423Z,100706.59
2022-10-04T20:47:40.655Z,100702.38
2022-10-04T20:50:28.256Z,100695.88
2022-10-04T20:53:00.586Z,100699.73
2022-10-04T20:55:33.043Z,100703.80
2022-10-04T20:58:21.678Z,100703.27
2022-10-04T21:01:02.589Z,100699.21
2022-10-04T21:03:30.978Z,100705.88
2022-10-04T21:06:13.557Z,100701.14
2022-10-04T21:08:41.855Z,100693.25
2022-10-04T21:11:20.297Z,100691.49
2022-10-04T21:13:59.715Z,100690.44
2022-10-04T21:16:37.038Z,100686.39
2022-10-04T21:19:33.639Z,100684.80
2022-10-04T21:22:07.058Z,100684.30
2022-10-04T21:24:43.876Z,100683.58
2022-10-04T21:27:25.521Z,100678.49
2022-10-04T21:29:53.906Z,100675.16
2022-10-04T21:32:24.650Z,100671.48
2022-10-04T21:34:55.058Z,100669.36
2022-10-04T21:37:23.313Z,100664.80
2022-10-04T21:39:52.987Z,100659.70
2022-10-04T21:42:23.767Z,100651.27
2022-10-04T21:44:52.219Z,100640.91
2022-10-04T21:47:31.200Z,100640.39
2022-10-04T21:49:59.503Z,100638.80
2022-10-04T21:52:27.716Z,100635.65
2022-10-04T21:54:55.938Z,100634.24
2022-10-04T21:57:24.175Z,100626.69
2022-10-04T21:59:53.029Z,100638.83
2022-10-04T22:02:21.398Z,100638.30
2022-10-04T22:04:49.652Z,100636.17
2022-10-04T22:07:18.230Z,100634.24
2022-10-04T22:09:46.280Z,100632.84
2022-10-04T22:12:18.791Z,100636.19
2022-10-04T22:15:09.777Z,100633.55
2022-10-04T22:17:40.260Z,100636.17
2022-10-04T22:20:08.777Z,100632.48
2022-10-04T22:22:39.684Z,100647.59
2022-10-04T22:25:20.283Z,100650.23
2022-10-04T22:27:48.655Z,100647.41
2022-10-04T22:30:21.850Z,100641.27
2022-10-04T22:32:50.600Z,100634.77
2022-10-04T22:35:20.419Z,100631.09
2022-10-04T22:37:49.682Z,100630.91
2022-10-04T22:40:24.065Z,100625.83
2022-10-04T22:42:54.327Z,100616.52
2022-10-04T22:45:29.653Z,100607.04
2022-10-04T22:48:00.167Z,100610.02
2022-10-04T22:50:28.210Z,100614.41
2022-10-04T22:52:56.743Z,100618.10
2022-10-04T22:55:25.315Z,100614.06
2022-10-04T22:57:53.602Z,100616.52
2022-10-04T23:00:21.883Z,100613.54
2022-10-04T23:02:50.057Z,100618.27
2022-10-04T23:05:19.904Z,100615.65
2022-10-04T23:07:48.679Z,100609.67
2022-10-04T23:10:19.600Z,100606.52
2022-10-04T23:12:52.160Z,100603.36
2022-10-04T23:15:21.124Z,100610.20
2022-10-04T23:17:55.994Z,100608.96
2022-10-04T23:20:24.259Z,100602.48
2022-10-04T23:22:54.505Z,100596.69
2022-10-04T23:25:29.009Z,100590.52
2022-10-04T23:28:01.574Z,100590.35
2022-10-04T23:30:29.941Z,100581.94
2022-10-04T23:33:01.344Z,100579.13
2022-10-04T23:35:33.236Z,100579.82
2022-10-04T23:38:07.103Z,100575.78
2022-10-04T23:40:35.468Z,100583.34
2022-10-04T23:43:05.784Z,100582.27
2022-10-04T23:45:35.579Z,100583.34
2022-10-04T23:48:06.005Z,100575.95
2022-10-04T23:50:36.619Z,100564.02
2022-10-04T23:53:10.875Z,100559.11
2022-10-04T23:55:42.641Z,100549.09
2022-10-04T23:58:23.988Z,100554.89
